Frog Pond, North Carolina
Current Conditions -  °F | °C
As of 12:15 PM on Saturday 20 Dec 2014 (Local Time) from KVUJ Reporting Station
Overcast Overcast  
Wind Chill: 38°   Ceiling: 5500
Heat Index: 42°   Visibility: 10mi
Dew Point: 36°   Wind: 6mph
Humidity: 80%   Direction: 110°ESE
Pressure: 30.29"   Gusts: NA
Location:  35.237°N, 80.3328°W
Report Text: KVUJ 201715Z AUTO 11005KT 10SM SCT041 OVC055 05/02 A3029 RMK AO2 T00530021
Loading
Personal Weather Stations






























Interactive Weather Map New forecast layout! Learn more

10-Day Weather Forecast

Advertisements
Track Severe Weather on mobile